Time;durP1;ratioP1;P1;durP2;ratioP2;P2;SDS_P1;SDS_P2;PMS_P1;PMS_P2;Temp;Humidity;BMP_temperature;BMP_pressure;BME280_temperature;BME280_humidity;BME280_pressure;Samples;Min_cycle;Max_cycle;Signal;HPM_P1;HPM_P2
2022/02/13 00:09:01;;;;;;;12.93;6.03;;;;;;;-0.03;100.00;102180.41;30698288;28;20558;-78
2022/02/13 00:24:04;;;;;;;11.43;4.63;;;;;;;-0.05;100.00;102197.78;30700187;28;20070;-77
2022/02/13 00:39:09;;;;;;;7.90;4.00;;;;;;;-0.10;100.00;102214.69;30704252;28;20062;-76
2022/02/13 00:54:11;;;;;;;8.37;4.60;;;;;;;-0.17;100.00;102210.81;30680463;28;20054;-77
2022/02/13 01:09:13;;;;;;;10.70;4.80;;;;;;;-0.24;100.00;102200.53;30708171;28;20047;-77
2022/02/13 01:24:16;;;;;;;7.87;4.40;;;;;;;-0.38;100.00;102219.19;30690347;28;20058;-76
2022/02/13 01:39:18;;;;;;;7.83;4.30;;;;;;;-0.62;100.00;102242.50;30712138;28;20048;-77
2022/02/13 01:54:19;;;;;;;8.50;4.30;;;;;;;-0.66;100.00;102256.72;30703897;28;20142;-77
2022/02/13 02:09:25;;;;;;;7.77;3.97;;;;;;;-0.73;100.00;102273.91;30715700;28;20043;-77
2022/02/13 02:24:27;;;;;;;6.27;3.00;;;;;;;-0.76;100.00;102271.81;30692855;28;20063;-77
2022/02/13 02:39:29;;;;;;;8.03;4.80;;;;;;;-0.78;100.00;102297.19;30691043;28;20075;-77
2022/02/13 02:54:31;;;;;;;6.23;4.40;;;;;;;-0.79;100.00;102304.38;30688567;28;20051;-77
2022/02/13 03:09:33;;;;;;;10.93;4.50;;;;;;;-0.79;100.00;102300.94;30716850;28;20051;-77
2022/02/13 03:24:35;;;;;;;8.40;4.33;;;;;;;-0.77;100.00;102309.44;30711778;28;20143;-77
2022/02/13 03:39:38;;;;;;;10.30;4.50;;;;;;;-0.79;100.00;102327.59;30772828;28;20051;-77
2022/02/13 03:54:40;;;;;;;11.67;5.33;;;;;;;-0.91;100.00;102340.53;30727834;28;20416;-78
2022/02/13 04:09:43;;;;;;;12.63;4.87;;;;;;;-0.92;100.00;102346.94;30682102;28;20047;-77
2022/02/13 04:24:44;;;;;;;9.43;5.43;;;;;;;-0.89;100.00;102349.03;30682444;28;20066;-77
2022/02/13 04:39:46;;;;;;;12.13;6.50;;;;;;;-0.96;100.00;102344.09;30738261;28;20493;-77
2022/02/13 04:54:48;;;;;;;13.80;6.10;;;;;;;-0.92;100.00;102350.41;30716407;28;20421;-75
2022/02/13 05:09:50;;;;;;;14.47;7.03;;;;;;;-0.70;100.00;102368.53;30780295;28;20043;-76
2022/02/13 05:24:52;;;;;;;17.13;6.17;;;;;;;-0.72;100.00;102384.06;30716321;28;20059;-75
2022/02/13 05:39:54;;;;;;;18.47;7.53;;;;;;;0.15;100.00;102399.59;30715086;28;20054;-76
2022/02/13 05:54:56;;;;;;;15.53;7.47;;;;;;;1.50;92.70;102394.63;30713174;28;20493;-76
2022/02/13 06:09:57;;;;;;;11.63;6.57;;;;;;;3.13;84.60;102390.53;30702937;28;20043;-76
2022/02/13 06:24:59;;;;;;;12.50;6.37;;;;;;;4.95;77.95;102395.44;30690012;28;20051;-76
2022/02/13 06:40:01;;;;;;;10.53;6.83;;;;;;;6.02;69.59;102412.94;30704280;28;20515;-76
2022/02/13 06:55:04;;;;;;;16.50;6.07;;;;;;;6.74;66.42;102411.53;30698673;28;20047;-77
2022/02/13 07:10:09;;;;;;;11.60;4.70;;;;;;;7.33;63.42;102400.25;30707019;28;20051;-76
2022/02/13 07:25:11;;;;;;;7.47;4.97;;;;;;;8.11;59.72;102414.13;30729040;28;20138;-77
2022/02/13 07:40:15;;;;;;;11.57;5.40;;;;;;;8.77;54.82;102412.75;30715211;28;20115;-77
2022/02/13 07:55:17;;;;;;;10.13;5.07;;;;;;;9.33;53.55;102407.09;30723250;28;20147;-77
2022/02/13 08:10:19;;;;;;;11.90;5.23;;;;;;;10.00;50.12;102391.41;30751179;28;20061;-77
2022/02/13 08:25:21;;;;;;;9.47;4.77;;;;;;;10.75;47.39;102393.56;30716783;28;20158;-78
2022/02/13 08:40:23;;;;;;;7.70;4.13;;;;;;;11.23;43.82;102392.72;30732734;28;20077;-76
2022/02/13 08:55:25;;;;;;;5.83;3.13;;;;;;;10.93;41.12;102400.03;30738978;28;20106;-76
2022/02/13 09:10:28;;;;;;;6.40;2.70;;;;;;;11.53;37.59;102394.69;30765448;28;20516;-76
2022/02/13 09:25:30;;;;;;;5.77;3.40;;;;;;;11.59;38.23;102376.88;30711360;28;20055;-78
2022/02/13 09:40:33;;;;;;;5.53;3.10;;;;;;;12.21;36.91;102353.50;30697345;28;20058;-76
2022/02/13 09:55:35;;;;;;;5.67;2.60;;;;;;;12.40;34.38;102346.25;30688466;28;20047;-78
2022/02/13 10:10:37;;;;;;;4.57;2.60;;;;;;;12.65;33.62;102322.72;30687967;28;20058;-77
2022/02/13 10:25:42;;;;;;;4.63;2.23;;;;;;;13.15;31.99;102310.19;30726067;28;20079;-76
2022/02/13 10:40:50;;;;;;;18.87;5.07;;;;;;;12.72;31.86;102308.38;30690485;28;20150;-82
2022/02/13 10:55:54;;;;;;;4.43;2.03;;;;;;;12.67;31.72;102289.66;30723348;29;20488;-80
2022/02/13 11:10:57;;;;;;;5.30;2.20;;;;;;;12.93;31.01;102267.59;30740013;28;20650;-77
2022/02/13 11:26:03;;;;;;;4.33;1.83;;;;;;;13.18;30.27;102246.72;30701581;28;20055;-75
2022/02/13 11:41:06;;;;;;;4.23;2.13;;;;;;;12.88;30.22;102243.44;30713766;28;20398;-75
2022/02/13 11:56:22;;;;;;;3.50;1.90;;;;;;;12.11;31.32;102228.16;30716474;28;20410;-74
2022/02/13 12:11:42;;;;;;;1.70;1.47;;;;;;;13.52;28.42;102205.47;30707744;28;20059;-73
2022/02/13 12:26:57;;;;;;;2.73;1.90;;;;;;;14.59;29.27;102193.34;30715822;28;20149;-75
2022/02/13 12:41:59;;;;;;;5.07;1.67;;;;;;;13.11;30.46;102199.50;30715929;28;20063;-76
2022/02/13 12:57:32;;;;;;;4.13;1.93;;;;;;;9.17;36.52;102201.97;30714533;28;20062;-75
2022/02/13 13:12:33;;;;;;;5.70;1.73;;;;;;;7.77;38.57;102198.41;30751479;28;20052;-78
2022/02/13 13:27:35;;;;;;;4.20;1.80;;;;;;;7.08;40.83;102189.66;30693777;29;20055;-75
2022/02/13 13:42:42;;;;;;;2.40;1.80;;;;;;;6.90;40.16;102169.44;30697838;28;20472;-76
2022/02/13 13:57:45;;;;;;;3.07;1.53;;;;;;;6.63;42.39;102162.88;30689622;28;20141;-75
2022/02/13 14:12:47;;;;;;;3.50;1.57;;;;;;;6.07;44.29;102146.56;30709047;28;20477;-76
2022/02/13 14:27:49;;;;;;;2.20;1.43;;;;;;;5.76;44.34;102143.59;30722864;28;20064;-75
2022/02/13 14:42:51;;;;;;;3.93;2.03;;;;;;;5.63;45.94;102133.94;30767092;28;20047;-77
2022/02/13 14:57:53;;;;;;;3.53;2.17;;;;;;;5.38;47.06;102125.03;30741423;28;20074;-78
2022/02/13 15:12:55;;;;;;;7.13;3.10;;;;;;;5.03;49.58;102120.00;30710305;28;20429;-75
2022/02/13 15:28:17;;;;;;;12.13;3.70;;;;;;;4.70;54.66;102116.50;30717354;28;20503;-78
2022/02/13 15:43:20;;;;;;;8.83;4.00;;;;;;;4.01;57.85;102115.06;30700215;28;20063;-75
2022/02/13 15:58:21;;;;;;;14.00;5.13;;;;;;;3.60;61.51;102118.41;30691090;28;20520;-79
2022/02/13 16:13:23;;;;;;;12.77;5.50;;;;;;;3.60;60.68;102113.03;30767561;28;20556;-87
2022/02/13 16:28:25;;;;;;;14.67;5.37;;;;;;;3.54;59.82;102114.34;30732312;28;20142;-80
2022/02/13 16:43:27;;;;;;;13.47;5.40;;;;;;;3.21;59.40;102111.44;30774810;28;20074;-80
2022/02/13 16:58:29;;;;;;;13.17;6.57;;;;;;;3.04;59.75;102106.88;30746828;28;20061;-84
2022/02/13 17:13:31;;;;;;;13.47;5.20;;;;;;;2.90;59.94;102087.47;30777404;28;20577;-77
2022/02/13 17:28:33;;;;;;;12.50;5.07;;;;;;;2.86;59.79;102081.16;30699584;28;20047;-78
2022/02/13 17:43:35;;;;;;;13.97;5.43;;;;;;;2.80;60.72;102079.78;30756886;28;20051;-81
2022/02/13 17:58:37;;;;;;;12.23;4.50;;;;;;;2.66;61.21;102079.94;30743896;28;20055;-80
2022/02/13 18:13:39;;;;;;;15.43;5.07;;;;;;;2.46;66.26;102055.66;30687409;28;20051;-75
2022/02/13 18:28:43;;;;;;;11.00;5.67;;;;;;;2.34;64.30;102046.38;30728494;28;20062;-76
2022/02/13 18:43:45;;;;;;;15.63;6.00;;;;;;;2.28;63.69;102039.56;30729613;28;20043;-76
2022/02/13 18:58:47;;;;;;;14.10;6.60;;;;;;;2.30;64.29;102045.41;30748646;28;20114;-74
2022/02/13 19:13:49;;;;;;;21.37;8.47;;;;;;;2.27;64.95;102042.56;30734597;28;20054;-75
2022/02/13 19:28:51;;;;;;;26.57;8.57;;;;;;;2.28;64.12;102026.16;30692356;28;20060;-77
2022/02/13 19:43:53;;;;;;;15.40;6.90;;;;;;;2.10;64.58;102021.91;30702841;28;20079;-77
2022/02/13 19:58:55;;;;;;;27.30;10.20;;;;;;;1.93;65.52;102011.16;30772580;28;20055;-75
2022/02/13 20:13:59;;;;;;;30.63;10.33;;;;;;;1.83;65.41;101998.09;30722816;28;20051;-76
2022/02/13 20:29:01;;;;;;;20.33;8.87;;;;;;;1.77;66.85;101999.31;30760194;28;20761;-74
2022/02/13 20:44:03;;;;;;;21.03;8.03;;;;;;;1.79;66.26;101997.91;30748503;28;20058;-76
2022/02/13 20:59:05;;;;;;;17.60;7.30;;;;;;;1.75;65.88;102006.88;30691131;28;20087;-77
2022/02/13 21:14:09;;;;;;;20.60;7.70;;;;;;;1.67;65.59;101990.47;30688668;28;20091;-75
2022/02/13 21:29:11;;;;;;;19.03;8.77;;;;;;;1.59;64.44;101985.91;30714391;28;20701;-75
2022/02/13 21:44:13;;;;;;;18.80;8.40;;;;;;;1.41;65.97;101978.94;30712721;28;20074;-76
2022/02/13 21:59:15;;;;;;;25.10;12.43;;;;;;;1.26;68.38;101969.44;30724860;28;20051;-75
2022/02/13 22:14:17;;;;;;;22.80;12.67;;;;;;;1.17;69.22;101959.81;30734655;28;20097;-72
2022/02/13 22:29:19;;;;;;;28.77;14.37;;;;;;;1.01;70.08;101946.03;30752746;28;20060;-75
2022/02/13 22:44:21;;;;;;;27.60;13.60;;;;;;;0.87;71.39;101935.47;30710045;28;20047;-75
2022/02/13 22:59:23;;;;;;;30.63;14.07;;;;;;;0.97;71.61;101929.81;30742284;28;20060;-75
2022/02/13 23:14:25;;;;;;;37.20;15.10;;;;;;;0.85;71.47;101928.84;30704049;28;20057;-74
2022/02/13 23:29:27;;;;;;;34.07;15.97;;;;;;;0.64;73.68;101925.91;30750828;28;20138;-75
2022/02/13 23:44:29;;;;;;;41.90;18.03;;;;;;;0.54;74.39;101912.78;30746959;28;20463;-75
2022/02/13 23:59:32;;;;;;;48.90;20.20;;;;;;;0.56;74.95;101886.56;30712985;28;20055;-74
